sensor_id;sensor_type;location;lat;lon;timestamp;temperature;humidity
22714;DHT22;11524;50.846;4.326;2022-11-21T00:01:33;17.80;67.60
22714;DHT22;11524;50.846;4.326;2022-11-21T00:03:58;17.80;67.60
22714;DHT22;11524;50.846;4.326;2022-11-21T00:06:24;17.90;67.80
22714;DHT22;11524;50.846;4.326;2022-11-21T00:08:50;17.80;67.30
22714;DHT22;11524;50.846;4.326;2022-11-21T00:11:16;17.90;67.40
22714;DHT22;11524;50.846;4.326;2022-11-21T00:13:42;17.80;67.10
22714;DHT22;11524;50.846;4.326;2022-11-21T00:16:10;17.80;67.10
22714;DHT22;11524;50.846;4.326;2022-11-21T00:18:36;17.80;67.10
22714;DHT22;11524;50.846;4.326;2022-11-21T00:21:13;17.80;67.10
22714;DHT22;11524;50.846;4.326;2022-11-21T00:23:39;17.80;67.10
22714;DHT22;11524;50.846;4.326;2022-11-21T00:26:06;17.70;67.00
22714;DHT22;11524;50.846;4.326;2022-11-21T00:28:32;17.80;67.20
22714;DHT22;11524;50.846;4.326;2022-11-21T00:30:58;17.80;67.10
22714;DHT22;11524;50.846;4.326;2022-11-21T00:33:24;17.80;67.20
22714;DHT22;11524;50.846;4.326;2022-11-21T00:35:49;17.80;67.00
22714;DHT22;11524;50.846;4.326;2022-11-21T00:38:15;17.70;67.00
22714;DHT22;11524;50.846;4.326;2022-11-21T00:40:44;17.80;67.40
22714;DHT22;11524;50.846;4.326;2022-11-21T00:43:10;17.80;67.70
22714;DHT22;11524;50.846;4.326;2022-11-21T00:45:36;17.80;67.80
22714;DHT22;11524;50.846;4.326;2022-11-21T00:48:02;17.70;67.70
22714;DHT22;11524;50.846;4.326;2022-11-21T00:50:28;17.70;68.40
22714;DHT22;11524;50.846;4.326;2022-11-21T00:52:55;17.70;68.00
22714;DHT22;11524;50.846;4.326;2022-11-21T00:55:21;17.80;68.10
22714;DHT22;11524;50.846;4.326;2022-11-21T00:57:46;17.80;68.10
22714;DHT22;11524;50.846;4.326;2022-11-21T01:00:12;17.80;68.20
22714;DHT22;11524;50.846;4.326;2022-11-21T01:02:38;17.80;68.20
22714;DHT22;11524;50.846;4.326;2022-11-21T01:05:04;17.80;68.50
22714;DHT22;11524;50.846;4.326;2022-11-21T01:07:29;17.80;68.20
22714;DHT22;11524;50.846;4.326;2022-11-21T01:09:55;17.80;68.60
22714;DHT22;11524;50.846;4.326;2022-11-21T01:12:21;17.80;68.20
22714;DHT22;11524;50.846;4.326;2022-11-21T01:14:46;17.80;68.10
22714;DHT22;11524;50.846;4.326;2022-11-21T01:17:12;17.80;68.10
22714;DHT22;11524;50.846;4.326;2022-11-21T01:19:37;17.80;68.00
22714;DHT22;11524;50.846;4.326;2022-11-21T01:22:03;17.90;68.30
22714;DHT22;11524;50.846;4.326;2022-11-21T01:24:29;17.80;68.10
22714;DHT22;11524;50.846;4.326;2022-11-21T01:26:54;17.90;68.00
22714;DHT22;11524;50.846;4.326;2022-11-21T01:29:20;17.80;67.80
22714;DHT22;11524;50.846;4.326;2022-11-21T01:31:46;17.80;68.00
22714;DHT22;11524;50.846;4.326;2022-11-21T01:34:12;17.80;67.90
22714;DHT22;11524;50.846;4.326;2022-11-21T01:36:39;17.90;68.00
22714;DHT22;11524;50.846;4.326;2022-11-21T01:39:06;17.80;67.90
22714;DHT22;11524;50.846;4.326;2022-11-21T01:41:41;17.80;68.00
22714;DHT22;11524;50.846;4.326;2022-11-21T01:44:24;17.80;68.00
22714;DHT22;11524;50.846;4.326;2022-11-21T01:46:51;17.80;67.60
22714;DHT22;11524;50.846;4.326;2022-11-21T01:49:30;17.80;68.20
22714;DHT22;11524;50.846;4.326;2022-11-21T01:52:24;17.80;67.80
22714;DHT22;11524;50.846;4.326;2022-11-21T01:54:57;17.80;68.20
22714;DHT22;11524;50.846;4.326;2022-11-21T01:57:40;17.80;68.10
22714;DHT22;11524;50.846;4.326;2022-11-21T02:00:21;17.80;67.70
22714;DHT22;11524;50.846;4.326;2022-11-21T02:03:01;17.80;67.80
22714;DHT22;11524;50.846;4.326;2022-11-21T02:05:30;17.80;61.40
22714;DHT22;11524;50.846;4.326;2022-11-21T02:08:03;17.80;61.40
22714;DHT22;11524;50.846;4.326;2022-11-21T02:10:31;17.80;61.30
22714;DHT22;11524;50.846;4.326;2022-11-21T02:12:57;17.70;61.10
22714;DHT22;11524;50.846;4.326;2022-11-21T02:15:25;17.70;61.00
22714;DHT22;11524;50.846;4.326;2022-11-21T02:17:52;17.70;60.80
22714;DHT22;11524;50.846;4.326;2022-11-21T02:20:22;17.70;61.10
22714;DHT22;11524;50.846;4.326;2022-11-21T02:23:16;17.60;60.70
22714;DHT22;11524;50.846;4.326;2022-11-21T02:25:44;17.60;59.60
22714;DHT22;11524;50.846;4.326;2022-11-21T02:28:14;17.60;60.60
22714;DHT22;11524;50.846;4.326;2022-11-21T02:30:41;17.70;60.80
22714;DHT22;11524;50.846;4.326;2022-11-21T02:33:08;17.80;60.60
22714;DHT22;11524;50.846;4.326;2022-11-21T02:35:34;17.70;60.40
22714;DHT22;11524;50.846;4.326;2022-11-21T02:38:06;17.60;60.40
22714;DHT22;11524;50.846;4.326;2022-11-21T02:40:39;17.60;60.00
22714;DHT22;11524;50.846;4.326;2022-11-21T02:43:23;17.70;60.30
22714;DHT22;11524;50.846;4.326;2022-11-21T02:45:49;17.60;59.60
22714;DHT22;11524;50.846;4.326;2022-11-21T02:48:15;17.60;57.90
22714;DHT22;11524;50.846;4.326;2022-11-21T02:50:43;17.60;60.90
22714;DHT22;11524;50.846;4.326;2022-11-21T02:53:11;17.50;60.00
22714;DHT22;11524;50.846;4.326;2022-11-21T02:55:37;17.60;60.10
22714;DHT22;11524;50.846;4.326;2022-11-21T02:58:03;17.50;60.30
22714;DHT22;11524;50.846;4.326;2022-11-21T03:00:29;17.50;60.70
22714;DHT22;11524;50.846;4.326;2022-11-21T03:02:54;17.50;60.40
22714;DHT22;11524;50.846;4.326;2022-11-21T03:05:21;17.50;60.00
22714;DHT22;11524;50.846;4.326;2022-11-21T03:07:47;17.50;59.90
22714;DHT22;11524;50.846;4.326;2022-11-21T03:10:13;17.50;60.00
22714;DHT22;11524;50.846;4.326;2022-11-21T03:12:40;17.50;60.00
22714;DHT22;11524;50.846;4.326;2022-11-21T03:15:09;17.50;59.80
22714;DHT22;11524;50.846;4.326;2022-11-21T03:17:35;17.50;59.80
22714;DHT22;11524;50.846;4.326;2022-11-21T03:20:01;17.50;59.70
22714;DHT22;11524;50.846;4.326;2022-11-21T03:22:27;17.50;59.80
22714;DHT22;11524;50.846;4.326;2022-11-21T03:24:53;17.50;59.80
22714;DHT22;11524;50.846;4.326;2022-11-21T03:27:18;17.50;59.70
22714;DHT22;11524;50.846;4.326;2022-11-21T03:29:44;17.50;59.70
22714;DHT22;11524;50.846;4.326;2022-11-21T03:32:09;17.50;59.50
22714;DHT22;11524;50.846;4.326;2022-11-21T03:34:35;17.50;59.70
22714;DHT22;11524;50.846;4.326;2022-11-21T03:37:01;17.40;59.40
22714;DHT22;11524;50.846;4.326;2022-11-21T03:39:28;17.40;59.40
22714;DHT22;11524;50.846;4.326;2022-11-21T03:41:54;17.40;59.80
22714;DHT22;11524;50.846;4.326;2022-11-21T03:44:19;17.40;59.40
22714;DHT22;11524;50.846;4.326;2022-11-21T03:46:45;17.40;59.40
22714;DHT22;11524;50.846;4.326;2022-11-21T03:49:12;17.40;59.60
22714;DHT22;11524;50.846;4.326;2022-11-21T03:51:39;17.40;59.50
22714;DHT22;11524;50.846;4.326;2022-11-21T03:54:05;17.40;59.60
22714;DHT22;11524;50.846;4.326;2022-11-21T03:56:31;17.40;59.40
22714;DHT22;11524;50.846;4.326;2022-11-21T03:58:56;17.40;59.60
22714;DHT22;11524;50.846;4.326;2022-11-21T04:01:23;17.40;59.40
22714;DHT22;11524;50.846;4.326;2022-11-21T04:03:49;17.30;59.60
22714;DHT22;11524;50.846;4.326;2022-11-21T04:06:17;17.50;59.50
22714;DHT22;11524;50.846;4.326;2022-11-21T04:08:43;17.40;59.60
22714;DHT22;11524;50.846;4.326;2022-11-21T04:11:09;17.40;59.70
22714;DHT22;11524;50.846;4.326;2022-11-21T04:13:34;17.40;59.80
22714;DHT22;11524;50.846;4.326;2022-11-21T04:16:00;17.40;59.70
22714;DHT22;11524;50.846;4.326;2022-11-21T04:18:26;17.40;59.80
22714;DHT22;11524;50.846;4.326;2022-11-21T04:20:58;17.40;59.80
22714;DHT22;11524;50.846;4.326;2022-11-21T04:23:24;17.40;59.50
22714;DHT22;11524;50.846;4.326;2022-11-21T04:25:50;17.40;60.30
22714;DHT22;11524;50.846;4.326;2022-11-21T04:28:15;17.40;59.60
22714;DHT22;11524;50.846;4.326;2022-11-21T04:30:41;17.40;59.50
22714;DHT22;11524;50.846;4.326;2022-11-21T04:33:07;17.40;59.60
22714;DHT22;11524;50.846;4.326;2022-11-21T04:35:32;17.40;59.60
22714;DHT22;11524;50.846;4.326;2022-11-21T04:37:58;17.40;59.50
22714;DHT22;11524;50.846;4.326;2022-11-21T04:40:24;17.40;59.20
22714;DHT22;11524;50.846;4.326;2022-11-21T04:42:49;17.40;59.50
22714;DHT22;11524;50.846;4.326;2022-11-21T04:45:15;17.40;59.50
22714;DHT22;11524;50.846;4.326;2022-11-21T04:47:43;17.40;59.40
22714;DHT22;11524;50.846;4.326;2022-11-21T04:50:11;17.30;59.10
22714;DHT22;11524;50.846;4.326;2022-11-21T04:52:37;17.40;59.50
22714;DHT22;11524;50.846;4.326;2022-11-21T04:55:03;17.40;59.40
22714;DHT22;11524;50.846;4.326;2022-11-21T04:57:30;17.40;59.20
22714;DHT22;11524;50.846;4.326;2022-11-21T04:59:56;17.40;59.00
22714;DHT22;11524;50.846;4.326;2022-11-21T05:02:22;17.30;59.20
22714;DHT22;11524;50.846;4.326;2022-11-21T05:04:48;17.30;59.10
22714;DHT22;11524;50.846;4.326;2022-11-21T05:07:14;17.30;58.80
22714;DHT22;11524;50.846;4.326;2022-11-21T05:09:40;17.30;58.90
22714;DHT22;11524;50.846;4.326;2022-11-21T05:12:08;17.30;58.70
22714;DHT22;11524;50.846;4.326;2022-11-21T05:14:52;17.30;58.60
22714;DHT22;11524;50.846;4.326;2022-11-21T05:17:17;17.30;58.70
22714;DHT22;11524;50.846;4.326;2022-11-21T05:19:43;17.30;58.70
22714;DHT22;11524;50.846;4.326;2022-11-21T05:22:08;17.40;59.10
22714;DHT22;11524;50.846;4.326;2022-11-21T05:24:34;17.30;58.80
22714;DHT22;11524;50.846;4.326;2022-11-21T05:27:00;17.30;58.70
22714;DHT22;11524;50.846;4.326;2022-11-21T05:29:25;17.30;58.80
22714;DHT22;11524;50.846;4.326;2022-11-21T05:31:51;17.30;58.70
22714;DHT22;11524;50.846;4.326;2022-11-21T05:34:16;17.30;58.50
22714;DHT22;11524;50.846;4.326;2022-11-21T05:36:42;17.30;59.00
22714;DHT22;11524;50.846;4.326;2022-11-21T05:39:07;17.30;58.80
22714;DHT22;11524;50.846;4.326;2022-11-21T05:41:33;17.20;58.60
22714;DHT22;11524;50.846;4.326;2022-11-21T05:43:58;17.20;58.60
22714;DHT22;11524;50.846;4.326;2022-11-21T05:46:25;17.20;58.50
22714;DHT22;11524;50.846;4.326;2022-11-21T05:48:52;17.20;58.50
22714;DHT22;11524;50.846;4.326;2022-11-21T05:51:19;17.20;58.60
22714;DHT22;11524;50.846;4.326;2022-11-21T05:53:45;17.20;58.60
22714;DHT22;11524;50.846;4.326;2022-11-21T05:56:13;17.20;58.40
22714;DHT22;11524;50.846;4.326;2022-11-21T05:58:39;17.20;58.60
22714;DHT22;11524;50.846;4.326;2022-11-21T06:01:06;17.20;58.50
22714;DHT22;11524;50.846;4.326;2022-11-21T06:03:35;17.20;58.60
22714;DHT22;11524;50.846;4.326;2022-11-21T06:08:36;17.20;58.20
22714;DHT22;11524;50.846;4.326;2022-11-21T06:11:03;17.20;58.50
22714;DHT22;11524;50.846;4.326;2022-11-21T06:13:29;17.20;58.70
22714;DHT22;11524;50.846;4.326;2022-11-21T06:16:02;17.10;59.20
22714;DHT22;11524;50.846;4.326;2022-11-21T06:18:34;17.10;58.80
22714;DHT22;11524;50.846;4.326;2022-11-21T06:21:05;17.10;58.70
22714;DHT22;11524;50.846;4.326;2022-11-21T06:23:32;17.00;59.00
22714;DHT22;11524;50.846;4.326;2022-11-21T06:25:59;17.10;58.90
22714;DHT22;11524;50.846;4.326;2022-11-21T06:28:26;17.10;58.90
22714;DHT22;11524;50.846;4.326;2022-11-21T06:30:51;17.10;58.80
22714;DHT22;11524;50.846;4.326;2022-11-21T06:33:18;17.10;60.00
22714;DHT22;11524;50.846;4.326;2022-11-21T06:35:44;17.50;54.10
22714;DHT22;11524;50.846;4.326;2022-11-21T06:38:09;17.80;50.00
22714;DHT22;11524;50.846;4.326;2022-11-21T06:40:38;17.80;49.80
22714;DHT22;11524;50.846;4.326;2022-11-21T06:43:04;17.70;52.40
22714;DHT22;11524;50.846;4.326;2022-11-21T06:45:29;17.50;54.20
22714;DHT22;11524;50.846;4.326;2022-11-21T06:47:55;17.50;54.80
22714;DHT22;11524;50.846;4.326;2022-11-21T06:50:21;17.40;54.70
22714;DHT22;11524;50.846;4.326;2022-11-21T06:52:47;17.40;54.90
22714;DHT22;11524;50.846;4.326;2022-11-21T06:55:13;17.50;55.10
22714;DHT22;11524;50.846;4.326;2022-11-21T06:57:39;17.40;54.90
22714;DHT22;11524;50.846;4.326;2022-11-21T07:00:05;17.50;55.10
22714;DHT22;11524;50.846;4.326;2022-11-21T07:02:31;17.40;54.90
22714;DHT22;11524;50.846;4.326;2022-11-21T07:04:57;17.50;54.80
22714;DHT22;11524;50.846;4.326;2022-11-21T07:07:22;17.50;54.70
22714;DHT22;11524;50.846;4.326;2022-11-21T07:09:48;17.60;54.60
22714;DHT22;11524;50.846;4.326;2022-11-21T07:12:13;17.50;54.80
22714;DHT22;11524;50.846;4.326;2022-11-21T07:14:57;17.60;54.60
22714;DHT22;11524;50.846;4.326;2022-11-21T07:17:23;17.60;54.70
22714;DHT22;11524;50.846;4.326;2022-11-21T07:19:48;17.60;54.50
22714;DHT22;11524;50.846;4.326;2022-11-21T07:22:14;17.60;54.70
22714;DHT22;11524;50.846;4.326;2022-11-21T07:24:39;17.70;54.60
22714;DHT22;11524;50.846;4.326;2022-11-21T07:27:05;17.60;54.60
22714;DHT22;11524;50.846;4.326;2022-11-21T07:29:30;17.70;54.50
22714;DHT22;11524;50.846;4.326;2022-11-21T07:31:56;17.60;54.60
22714;DHT22;11524;50.846;4.326;2022-11-21T07:34:22;17.70;54.30
22714;DHT22;11524;50.846;4.326;2022-11-21T07:36:47;17.70;54.10
22714;DHT22;11524;50.846;4.326;2022-11-21T07:39:13;17.70;54.30
22714;DHT22;11524;50.846;4.326;2022-11-21T07:41:38;17.70;54.30
22714;DHT22;11524;50.846;4.326;2022-11-21T07:44:04;17.70;54.20
22714;DHT22;11524;50.846;4.326;2022-11-21T07:46:29;17.80;54.20
22714;DHT22;11524;50.846;4.326;2022-11-21T07:48:55;17.80;54.20
22714;DHT22;11524;50.846;4.326;2022-11-21T07:51:21;17.70;54.10
22714;DHT22;11524;50.846;4.326;2022-11-21T07:53:46;17.80;54.30
22714;DHT22;11524;50.846;4.326;2022-11-21T07:56:12;17.80;54.10
22714;DHT22;11524;50.846;4.326;2022-11-21T07:58:37;17.80;54.10
22714;DHT22;11524;50.846;4.326;2022-11-21T08:01:06;17.80;54.00
22714;DHT22;11524;50.846;4.326;2022-11-21T08:03:32;17.90;54.00
22714;DHT22;11524;50.846;4.326;2022-11-21T08:06:01;17.80;53.90
22714;DHT22;11524;50.846;4.326;2022-11-21T08:08:28;17.80;54.10
22714;DHT22;11524;50.846;4.326;2022-11-21T08:10:53;17.80;53.90
22714;DHT22;11524;50.846;4.326;2022-11-21T08:13:19;17.80;53.80
22714;DHT22;11524;50.846;4.326;2022-11-21T08:15:45;17.80;53.80
22714;DHT22;11524;50.846;4.326;2022-11-21T08:18:15;17.80;53.60
22714;DHT22;11524;50.846;4.326;2022-11-21T08:20:43;17.80;53.80
22714;DHT22;11524;50.846;4.326;2022-11-21T08:23:09;17.90;53.70
22714;DHT22;11524;50.846;4.326;2022-11-21T08:25:38;17.90;53.60
22714;DHT22;11524;50.846;4.326;2022-11-21T08:28:04;17.80;53.60
22714;DHT22;11524;50.846;4.326;2022-11-21T08:30:31;17.90;53.60
22714;DHT22;11524;50.846;4.326;2022-11-21T08:32:57;17.90;53.40
22714;DHT22;11524;50.846;4.326;2022-11-21T08:35:26;17.90;53.50
22714;DHT22;11524;50.846;4.326;2022-11-21T08:37:59;17.90;54.00
22714;DHT22;11524;50.846;4.326;2022-11-21T08:40:27;18.00;53.40
22714;DHT22;11524;50.846;4.326;2022-11-21T08:43:05;17.90;53.20
22714;DHT22;11524;50.846;4.326;2022-11-21T08:45:31;17.90;53.30
22714;DHT22;11524;50.846;4.326;2022-11-21T08:47:58;17.90;53.20
22714;DHT22;11524;50.846;4.326;2022-11-21T08:50:24;17.90;53.20
22714;DHT22;11524;50.846;4.326;2022-11-21T08:52:50;17.90;53.10
22714;DHT22;11524;50.846;4.326;2022-11-21T08:55:16;17.90;53.20
22714;DHT22;11524;50.846;4.326;2022-11-21T08:57:42;17.90;53.10
22714;DHT22;11524;50.846;4.326;2022-11-21T09:00:09;17.90;53.00
22714;DHT22;11524;50.846;4.326;2022-11-21T09:02:37;18.00;53.20
22714;DHT22;11524;50.846;4.326;2022-11-21T09:05:03;18.00;53.30
22714;DHT22;11524;50.846;4.326;2022-11-21T09:07:29;18.00;53.00
22714;DHT22;11524;50.846;4.326;2022-11-21T09:09:54;18.00;53.10
22714;DHT22;11524;50.846;4.326;2022-11-21T09:12:20;18.00;53.00
22714;DHT22;11524;50.846;4.326;2022-11-21T09:14:45;18.00;53.00
22714;DHT22;11524;50.846;4.326;2022-11-21T09:17:30;18.00;53.00
22714;DHT22;11524;50.846;4.326;2022-11-21T09:20:17;18.00;53.00
22714;DHT22;11524;50.846;4.326;2022-11-21T09:22:42;18.00;51.70
22714;DHT22;11524;50.846;4.326;2022-11-21T09:25:08;18.00;52.70
22714;DHT22;11524;50.846;4.326;2022-11-21T09:27:33;18.00;53.00
22714;DHT22;11524;50.846;4.326;2022-11-21T09:29:59;18.00;52.80
22714;DHT22;11524;50.846;4.326;2022-11-21T09:32:24;18.00;52.80
22714;DHT22;11524;50.846;4.326;2022-11-21T09:34:50;18.00;53.10
22714;DHT22;11524;50.846;4.326;2022-11-21T09:37:16;18.00;52.70
22714;DHT22;11524;50.846;4.326;2022-11-21T09:39:41;18.00;52.70
22714;DHT22;11524;50.846;4.326;2022-11-21T09:45:12;18.00;52.70
22714;DHT22;11524;50.846;4.326;2022-11-21T09:47:44;18.10;52.70
22714;DHT22;11524;50.846;4.326;2022-11-21T09:52:41;18.10;52.70
22714;DHT22;11524;50.846;4.326;2022-11-21T09:55:30;18.10;53.00
22714;DHT22;11524;50.846;4.326;2022-11-21T09:58:02;18.10;52.80
22714;DHT22;11524;50.846;4.326;2022-11-21T10:00:29;18.10;52.70
22714;DHT22;11524;50.846;4.326;2022-11-21T10:02:56;18.10;52.80
22714;DHT22;11524;50.846;4.326;2022-11-21T10:05:43;18.10;52.70
22714;DHT22;11524;50.846;4.326;2022-11-21T10:08:22;18.10;52.90
22714;DHT22;11524;50.846;4.326;2022-11-21T10:16:50;18.20;52.40
22714;DHT22;11524;50.846;4.326;2022-11-21T10:19:32;18.10;52.60
22714;DHT22;11524;50.846;4.326;2022-11-21T10:25:14;18.20;52.30
22714;DHT22;11524;50.846;4.326;2022-11-21T10:27:57;18.20;52.40
22714;DHT22;11524;50.846;4.326;2022-11-21T10:30:24;18.20;52.50
22714;DHT22;11524;50.846;4.326;2022-11-21T10:33:01;18.20;52.40
22714;DHT22;11524;50.846;4.326;2022-11-21T10:38:20;18.10;52.30
22714;DHT22;11524;50.846;4.326;2022-11-21T10:40:54;18.20;53.00
22714;DHT22;11524;50.846;4.326;2022-11-21T10:46:13;18.20;52.30
22714;DHT22;11524;50.846;4.326;2022-11-21T10:48:39;18.20;52.90
22714;DHT22;11524;50.846;4.326;2022-11-21T10:51:21;18.20;52.40
22714;DHT22;11524;50.846;4.326;2022-11-21T10:54:05;18.10;52.40
22714;DHT22;11524;50.846;4.326;2022-11-21T10:56:51;18.20;52.50
22714;DHT22;11524;50.846;4.326;2022-11-21T10:59:24;18.20;52.30
22714;DHT22;11524;50.846;4.326;2022-11-21T11:01:58;18.20;52.40
22714;DHT22;11524;50.846;4.326;2022-11-21T11:04:33;18.20;52.50
22714;DHT22;11524;50.846;4.326;2022-11-21T11:07:22;18.20;52.50
22714;DHT22;11524;50.846;4.326;2022-11-21T11:09:48;18.20;52.60
22714;DHT22;11524;50.846;4.326;2022-11-21T11:12:28;18.20;52.60
22714;DHT22;11524;50.846;4.326;2022-11-21T11:15:20;18.20;52.70
22714;DHT22;11524;50.846;4.326;2022-11-21T11:17:55;18.20;52.60
22714;DHT22;11524;50.846;4.326;2022-11-21T11:20:41;18.20;52.60
22714;DHT22;11524;50.846;4.326;2022-11-21T11:25:56;18.20;52.70
22714;DHT22;11524;50.846;4.326;2022-11-21T11:28:24;18.20;52.70
22714;DHT22;11524;50.846;4.326;2022-11-21T11:30:52;18.20;52.60
22714;DHT22;11524;50.846;4.326;2022-11-21T11:33:39;18.30;52.70
22714;DHT22;11524;50.846;4.326;2022-11-21T11:38:35;18.30;52.80
22714;DHT22;11524;50.846;4.326;2022-11-21T11:41:08;18.30;53.30
22714;DHT22;11524;50.846;4.326;2022-11-21T11:52:19;18.30;53.40
22714;DHT22;11524;50.846;4.326;2022-11-21T11:54:53;18.30;52.80
22714;DHT22;11524;50.846;4.326;2022-11-21T11:57:20;18.30;53.00
22714;DHT22;11524;50.846;4.326;2022-11-21T11:59:57;18.30;52.70
22714;DHT22;11524;50.846;4.326;2022-11-21T12:02:28;18.30;52.90
22714;DHT22;11524;50.846;4.326;2022-11-21T12:05:08;18.30;52.90
22714;DHT22;11524;50.846;4.326;2022-11-21T12:07:43;18.30;53.00
22714;DHT22;11524;50.846;4.326;2022-11-21T12:10:25;18.30;52.90
22714;DHT22;11524;50.846;4.326;2022-11-21T12:13:10;18.30;52.90
22714;DHT22;11524;50.846;4.326;2022-11-21T12:15:40;18.30;53.10
22714;DHT22;11524;50.846;4.326;2022-11-21T12:23:45;18.30;53.10
22714;DHT22;11524;50.846;4.326;2022-11-21T12:26:44;18.30;52.90
22714;DHT22;11524;50.846;4.326;2022-11-21T12:29:35;18.30;53.00
22714;DHT22;11524;50.846;4.326;2022-11-21T12:32:32;18.30;53.10
22714;DHT22;11524;50.846;4.326;2022-11-21T12:43:22;18.30;53.00
22714;DHT22;11524;50.846;4.326;2022-11-21T12:46:01;18.40;53.10
22714;DHT22;11524;50.846;4.326;2022-11-21T12:57:15;18.30;53.10
22714;DHT22;11524;50.846;4.326;2022-11-21T12:59:55;18.40;53.10
22714;DHT22;11524;50.846;4.326;2022-11-21T13:05:11;18.40;53.20
22714;DHT22;11524;50.846;4.326;2022-11-21T13:07:38;18.40;53.20
22714;DHT22;11524;50.846;4.326;2022-11-21T13:10:11;18.40;53.20
22714;DHT22;11524;50.846;4.326;2022-11-21T13:12:49;18.40;53.40
22714;DHT22;11524;50.846;4.326;2022-11-21T13:15:25;18.40;53.30
22714;DHT22;11524;50.846;4.326;2022-11-21T13:18:12;18.40;53.20
22714;DHT22;11524;50.846;4.326;2022-11-21T13:20:47;18.40;53.30
22714;DHT22;11524;50.846;4.326;2022-11-21T13:26:01;18.40;53.30
22714;DHT22;11524;50.846;4.326;2022-11-21T13:28:32;18.40;53.10
22714;DHT22;11524;50.846;4.326;2022-11-21T13:30:59;18.40;53.10
22714;DHT22;11524;50.846;4.326;2022-11-21T13:55:44;18.40;52.80
22714;DHT22;11524;50.846;4.326;2022-11-21T13:58:13;18.40;53.00
22714;DHT22;11524;50.846;4.326;2022-11-21T14:01:25;18.40;53.10
22714;DHT22;11524;50.846;4.326;2022-11-21T14:06:38;18.40;52.90
22714;DHT22;11524;50.846;4.326;2022-11-21T14:09:45;18.40;53.10
22714;DHT22;11524;50.846;4.326;2022-11-21T14:17:42;18.40;53.00
22714;DHT22;11524;50.846;4.326;2022-11-21T14:20:27;18.40;53.00
22714;DHT22;11524;50.846;4.326;2022-11-21T14:23:03;18.40;53.00
22714;DHT22;11524;50.846;4.326;2022-11-21T14:28:07;18.40;53.00
22714;DHT22;11524;50.846;4.326;2022-11-21T14:30:39;18.40;52.90
22714;DHT22;11524;50.846;4.326;2022-11-21T14:38:22;18.40;52.90
22714;DHT22;11524;50.846;4.326;2022-11-21T14:40:48;18.40;52.80
22714;DHT22;11524;50.846;4.326;2022-11-21T14:45:53;18.40;52.90
22714;DHT22;11524;50.846;4.326;2022-11-21T14:48:25;18.40;52.90
22714;DHT22;11524;50.846;4.326;2022-11-21T14:50:51;18.40;52.80
22714;DHT22;11524;50.846;4.326;2022-11-21T14:53:16;18.40;52.80
22714;DHT22;11524;50.846;4.326;2022-11-21T14:55:48;18.50;52.90
22714;DHT22;11524;50.846;4.326;2022-11-21T14:58:15;18.40;52.70
22714;DHT22;11524;50.846;4.326;2022-11-21T15:01:23;18.40;52.80
22714;DHT22;11524;50.846;4.326;2022-11-21T15:03:57;18.40;52.60
22714;DHT22;11524;50.846;4.326;2022-11-21T15:06:23;18.40;52.70
22714;DHT22;11524;50.846;4.326;2022-11-21T15:08:49;18.40;52.00
22714;DHT22;11524;50.846;4.326;2022-11-21T15:11:16;18.40;52.60
22714;DHT22;11524;50.846;4.326;2022-11-21T15:13:44;18.40;52.70
22714;DHT22;11524;50.846;4.326;2022-11-21T15:16:11;18.30;52.70
22714;DHT22;11524;50.846;4.326;2022-11-21T15:18:40;18.30;52.80
22714;DHT22;11524;50.846;4.326;2022-11-21T15:21:06;18.40;52.80
22714;DHT22;11524;50.846;4.326;2022-11-21T15:23:34;18.30;52.90
22714;DHT22;11524;50.846;4.326;2022-11-21T15:26:02;18.30;52.90
22714;DHT22;11524;50.846;4.326;2022-11-21T15:28:29;18.30;52.60
22714;DHT22;11524;50.846;4.326;2022-11-21T15:31:17;18.30;52.90
22714;DHT22;11524;50.846;4.326;2022-11-21T15:33:59;18.30;52.80
22714;DHT22;11524;50.846;4.326;2022-11-21T15:36:26;18.30;52.70
22714;DHT22;11524;50.846;4.326;2022-11-21T15:39:10;18.30;52.70
22714;DHT22;11524;50.846;4.326;2022-11-21T15:41:37;18.30;52.70
22714;DHT22;11524;50.846;4.326;2022-11-21T15:46:33;18.30;52.80
22714;DHT22;11524;50.846;4.326;2022-11-21T15:49:02;18.30;52.80
22714;DHT22;11524;50.846;4.326;2022-11-21T15:51:48;18.30;52.90
22714;DHT22;11524;50.846;4.326;2022-11-21T15:54:19;18.30;52.80
22714;DHT22;11524;50.846;4.326;2022-11-21T15:56:46;18.30;52.80
22714;DHT22;11524;50.846;4.326;2022-11-21T15:59:12;18.30;52.80
22714;DHT22;11524;50.846;4.326;2022-11-21T16:01:38;18.30;52.70
22714;DHT22;11524;50.846;4.326;2022-11-21T16:04:06;18.30;52.70
22714;DHT22;11524;50.846;4.326;2022-11-21T16:06:32;18.30;52.80
22714;DHT22;11524;50.846;4.326;2022-11-21T16:08:59;18.40;52.80
22714;DHT22;11524;50.846;4.326;2022-11-21T16:13:55;18.30;52.60
22714;DHT22;11524;50.846;4.326;2022-11-21T16:16:23;18.30;52.60
22714;DHT22;11524;50.846;4.326;2022-11-21T16:18:49;18.30;52.70
22714;DHT22;11524;50.846;4.326;2022-11-21T16:21:15;18.30;52.50
22714;DHT22;11524;50.846;4.326;2022-11-21T16:23:41;18.30;52.70
22714;DHT22;11524;50.846;4.326;2022-11-21T16:26:08;18.30;52.80
22714;DHT22;11524;50.846;4.326;2022-11-21T16:28:35;18.30;53.70
22714;DHT22;11524;50.846;4.326;2022-11-21T16:31:01;18.30;52.90
22714;DHT22;11524;50.846;4.326;2022-11-21T16:33:28;18.30;53.10
22714;DHT22;11524;50.846;4.326;2022-11-21T16:35:54;18.30;52.90
22714;DHT22;11524;50.846;4.326;2022-11-21T16:38:25;18.30;53.00
22714;DHT22;11524;50.846;4.326;2022-11-21T16:40:59;18.30;52.90
22714;DHT22;11524;50.846;4.326;2022-11-21T16:43:27;18.30;52.90
22714;DHT22;11524;50.846;4.326;2022-11-21T16:45:53;18.30;52.90
22714;DHT22;11524;50.846;4.326;2022-11-21T16:48:20;18.30;53.00
22714;DHT22;11524;50.846;4.326;2022-11-21T16:50:46;18.30;53.10
22714;DHT22;11524;50.846;4.326;2022-11-21T16:53:12;18.30;53.20
22714;DHT22;11524;50.846;4.326;2022-11-21T16:55:37;18.30;53.10
22714;DHT22;11524;50.846;4.326;2022-11-21T16:58:03;18.30;53.10
22714;DHT22;11524;50.846;4.326;2022-11-21T17:00:29;18.30;53.30
22714;DHT22;11524;50.846;4.326;2022-11-21T17:02:54;18.30;53.40
22714;DHT22;11524;50.846;4.326;2022-11-21T17:05:21;18.30;53.20
22714;DHT22;11524;50.846;4.326;2022-11-21T17:07:47;18.30;53.40
22714;DHT22;11524;50.846;4.326;2022-11-21T17:10:13;18.30;53.40
22714;DHT22;11524;50.846;4.326;2022-11-21T17:12:41;18.30;53.50
22714;DHT22;11524;50.846;4.326;2022-11-21T17:15:12;18.30;53.60
22714;DHT22;11524;50.846;4.326;2022-11-21T17:17:38;18.30;53.70
22714;DHT22;11524;50.846;4.326;2022-11-21T17:20:05;18.30;53.90
22714;DHT22;11524;50.846;4.326;2022-11-21T17:22:31;18.30;53.30
22714;DHT22;11524;50.846;4.326;2022-11-21T17:24:57;18.20;54.40
22714;DHT22;11524;50.846;4.326;2022-11-21T17:27:23;18.20;54.50
22714;DHT22;11524;50.846;4.326;2022-11-21T17:29:49;18.20;54.40
22714;DHT22;11524;50.846;4.326;2022-11-21T17:32:15;18.10;54.50
22714;DHT22;11524;50.846;4.326;2022-11-21T17:34:41;18.10;54.60